Potsdam, NY

10:34 AM EST on January 22, 2017 (GMT -0500)
ERC, Clarkson Campus | | Change Station

Elev 479 ft 44.66 °N, 75.00 °W | Updated 5 minutes ago

Overcast
Overcast
34.6 °F
Feels Like 29 °F
N
6.0
Wind Variable Wind from NE
Gusts 15.0 mph

Today
High -- | Low -- °F
--% Chance of Precip.
Yesterday
High -- | Low -- °F
Precip. -- in
Pressure 29.86 in
Visibility 10.0 miles
Clouds Scattered Clouds 1600 ft
Mostly Cloudy 2400 ft
Overcast 6500 ft
Windchill 29 °F
Dew Point 33 °F
Humidity 93%
Rainfall 0.00 in
Snow Depth Not available.
7:28 AM 4:55 PM
Waning Crescent, 25% visible
METAR KMSS 221453Z AUTO 06012KT 10SM SCT016 BKN024 OVC065 01/M01 A2984 RMK AO2 SLP109 60000 T00111006 50012 $
Pressure 29.86 in
Visibility 10.0 miles
Clouds Scattered Clouds 1600 ft
Mostly Cloudy 2400 ft
Overcast 6500 ft
Windchill 29 °F
Dew Point 33 °F
Humidity 93%
Rainfall 0.00 in
Snow Depth Not available.
7:28 AM 4:55 PM
Waning Crescent, 25% visible
METAR KMSS 221453Z AUTO 06012KT 10SM SCT016 BKN024 OVC065 01/M01 A2984 RMK AO2 SLP109 60000 T00111006 50012 $

Get Your Daily Forecast Email!

Thanks for signing up!

Be on the lookout for a verification email in your inbox.

You'll start receiving the daily forecast at 8 AM.

×

10-Day Weather Forecast

Almanac

Astronomy

Jan. 22, 2017 Rise Set
Actual Time
Civil Twilight
Nautical Twilight
Astronomical Twilight
Moon
Length of Visible Light
Length of Day
Tomorrow will be .
, % of the Moon is Illuminated

Today's Extremes

State Highs State Lows

Community

WunderPhotos

Upload Photos

1,962,540 photos uploaded!

WunderBlog® & News

Nearby

Air Quality

  Air Quality AQ Index Pollutant
Not available.

Snow Depth

Station Depth Elevation

Earthquake Activity

City Distance Mag. Time & Date
Minimum magnitude displayed is 2.5.

Coastal Water Temperatures

Place Temperature

Stations

Nearby Weather Stations

Station Location Temp. Windchill Dew Point Humidity Wind Precip. Elev Updated Type
                   

Watches & Warnings

There are currently no watches in effect.